Time;durP1;ratioP1;P1;durP2;ratioP2;P2;SDS_P1;SDS_P2;PMS_P1;PMS_P2;Temp;Humidity;BMP_temperature;BMP_pressure;BME280_temperature;BME280_humidity;BME280_pressure;Samples;Min_cycle;Max_cycle;Signal;HPM_P1;HPM_P2
2024/01/16 00:02:10;;;;;;;0.50;0.50;;;;;;;-12.21;77.80;99087.06;5107839;28;20024;-71
2024/01/16 00:04:39;;;;;;;0.70;0.70;;;;;;;-12.17;77.59;99098.09;5108837;28;20035;-71
2024/01/16 00:07:05;;;;;;;0.70;0.70;;;;;;;-12.22;77.57;99090.31;5108862;28;20024;-71
2024/01/16 00:09:34;;;;;;;0.70;0.70;;;;;;;-12.17;77.45;99102.25;5108767;28;20039;-72
2024/01/16 00:12:00;;;;;;;0.70;0.70;;;;;;;-12.43;77.36;99069.84;5108775;28;20074;-71
2024/01/16 00:14:25;;;;;;;0.70;0.70;;;;;;;-12.34;77.69;99087.06;5107725;28;20029;-71
2024/01/16 00:16:50;;;;;;;0.70;0.70;;;;;;;-12.21;77.48;99109.56;5108734;28;20032;-71
2024/01/16 00:19:16;;;;;;;0.80;0.80;;;;;;;-12.20;77.49;99112.91;5108553;28;20099;-71
2024/01/16 00:21:42;;;;;;;0.70;0.70;;;;;;;-12.16;77.80;99119.88;5108570;28;20031;-71
2024/01/16 00:24:08;;;;;;;0.60;0.60;;;;;;;-12.18;77.69;99121.41;5107263;28;20019;-71
2024/01/16 00:26:33;;;;;;;0.70;0.70;;;;;;;-12.29;77.66;99123.25;5108456;28;20047;-71
2024/01/16 00:28:59;;;;;;;0.63;0.63;;;;;;;-12.31;77.46;99124.78;5106895;28;20099;-70
2024/01/16 00:31:24;;;;;;;0.60;0.60;;;;;;;-12.29;77.35;99142.38;5108445;28;20047;-71
2024/01/16 00:33:49;;;;;;;0.70;0.70;;;;;;;-12.37;77.47;99114.38;5108340;28;20382;-71
2024/01/16 00:36:15;;;;;;;0.70;0.70;;;;;;;-12.36;77.47;99131.16;5108390;28;20058;-71
2024/01/16 00:38:40;;;;;;;0.70;0.70;;;;;;;-12.36;77.40;99126.13;5108211;28;20161;-70
2024/01/16 00:41:06;;;;;;;0.80;0.80;;;;;;;-12.37;77.43;99136.91;5108112;28;20047;-71
2024/01/16 00:43:32;;;;;;;0.60;0.60;;;;;;;-12.41;77.40;99142.50;5108162;28;20027;-72
2024/01/16 00:45:58;;;;;;;0.75;0.75;;;;;;;-12.50;77.54;99141.13;5107955;28;20020;-70
2024/01/16 00:48:23;;;;;;;0.70;0.70;;;;;;;-12.45;77.35;99146.44;5107990;28;20024;-71
2024/01/16 00:50:49;;;;;;;0.70;0.70;;;;;;;-12.53;77.54;99143.44;5108009;28;20087;-71
2024/01/16 00:53:16;;;;;;;0.80;0.80;;;;;;;-12.59;77.66;99135.56;5106555;28;20387;-71
2024/01/16 00:55:42;;;;;;;0.70;0.70;;;;;;;-12.52;77.59;99152.66;5107940;28;20105;-70
2024/01/16 00:58:07;;;;;;;0.80;0.80;;;;;;;-12.57;77.70;99146.53;5107672;28;20027;-71
2024/01/16 01:00:34;;;;;;;0.70;0.70;;;;;;;-12.53;77.57;99152.56;5107680;28;20373;-71
2024/01/16 01:03:00;;;;;;;0.65;0.65;;;;;;;-12.59;77.84;99151.44;5107747;28;20110;-72
2024/01/16 01:05:28;;;;;;;0.60;0.60;;;;;;;-12.55;77.84;99159.97;5107548;28;20035;-72
2024/01/16 01:07:55;;;;;;;0.70;0.70;;;;;;;-12.51;77.91;99176.94;5107570;28;20472;-71
2024/01/16 01:10:20;;;;;;;0.70;0.70;;;;;;;-12.59;78.13;99156.44;5107684;28;20031;-71
2024/01/16 01:12:45;;;;;;;0.60;0.60;;;;;;;-12.52;77.90;99167.66;5107548;28;20031;-71
2024/01/16 01:15:11;;;;;;;0.70;0.70;;;;;;;-12.58;78.03;99159.78;5107375;28;20027;-72
2024/01/16 01:17:37;;;;;;;0.75;0.75;;;;;;;-12.51;78.14;99171.94;5107539;28;20035;-71
2024/01/16 01:20:03;;;;;;;0.70;0.70;;;;;;;-12.50;78.11;99178.66;5107306;28;20036;-71
2024/01/16 01:22:28;;;;;;;0.70;0.70;;;;;;;-12.53;78.03;99177.56;5107223;28;20047;-72
2024/01/16 01:24:53;;;;;;;3.90;1.35;;;;;;;-12.55;78.09;99177.47;5106677;28;20024;-72
2024/01/16 01:27:19;;;;;;;0.60;0.60;;;;;;;-12.61;77.97;99180.47;5106678;28;20089;-71
2024/01/16 01:29:44;;;;;;;0.80;0.80;;;;;;;-12.55;78.03;99182.47;5105441;28;20020;-70
2024/01/16 01:32:10;;;;;;;0.63;0.63;;;;;;;-12.55;78.15;99179.97;5107085;28;20024;-72
2024/01/16 01:34:35;;;;;;;0.68;0.68;;;;;;;-12.64;78.11;99171.88;5106947;28;20020;-72
2024/01/16 01:37:01;;;;;;;0.70;0.70;;;;;;;-12.53;78.15;99182.56;5107041;28;20024;-72
2024/01/16 01:39:26;;;;;;;0.82;0.82;;;;;;;-12.57;78.11;99182.38;5106921;28;20040;-71
2024/01/16 01:41:51;;;;;;;0.70;0.70;;;;;;;-12.52;78.25;99186.84;5106860;28;20499;-72
2024/01/16 01:44:17;;;;;;;0.70;0.70;;;;;;;-12.52;78.35;99190.19;5106789;28;20021;-71
2024/01/16 01:46:44;;;;;;;0.65;0.65;;;;;;;-12.51;78.49;99186.06;5106841;28;20043;-71
2024/01/16 01:49:13;;;;;;;0.70;0.70;;;;;;;-12.48;78.38;99196.25;5106675;28;20092;-71
2024/01/16 01:51:38;;;;;;;0.60;0.60;;;;;;;-12.51;78.36;99186.06;5106712;28;20047;-71
2024/01/16 01:54:04;;;;;;;0.73;0.73;;;;;;;-12.54;78.37;99184.22;5106561;28;20054;-72
2024/01/16 01:56:30;;;;;;;1.80;1.70;;;;;;;-12.48;78.13;99199.63;5106598;28;20045;-71
2024/01/16 01:58:58;;;;;;;1.08;1.08;;;;;;;-12.47;78.11;99201.34;5106284;28;20427;-70
2024/01/16 02:01:27;;;;;;;0.70;0.70;;;;;;;-12.54;77.89;99209.25;5106599;28;20036;-71
2024/01/16 02:03:55;;;;;;;0.70;0.70;;;;;;;-12.57;78.06;99206.53;5106454;28;20028;-71
2024/01/16 02:06:20;;;;;;;0.70;0.70;;;;;;;-12.66;77.93;99199.28;5106365;28;20031;-71
2024/01/16 02:08:46;;;;;;;0.70;0.70;;;;;;;-12.65;78.06;99210.19;5106277;28;20024;-71
2024/01/16 02:11:11;;;;;;;0.70;0.70;;;;;;;-12.72;77.91;99209.78;5106361;28;20451;-70
2024/01/16 02:13:37;;;;;;;0.70;0.70;;;;;;;-12.72;77.92;99213.91;5105032;28;20039;-71
2024/01/16 02:16:03;;;;;;;0.70;0.70;;;;;;;-12.74;77.96;99213.81;5104915;28;20024;-71
2024/01/16 02:18:29;;;;;;;0.70;0.70;;;;;;;-12.79;77.73;99205.13;5106455;28;20056;-71
2024/01/16 02:21:01;;;;;;;0.60;0.60;;;;;;;-12.76;77.72;99209.47;5106150;28;20154;-70
2024/01/16 02:23:27;;;;;;;0.70;0.70;;;;;;;-12.78;77.91;99213.50;5106259;28;20066;-71
2024/01/16 02:25:53;;;;;;;0.70;0.70;;;;;;;-12.87;77.74;99199.63;5106143;28;20494;-70
2024/01/16 02:28:18;;;;;;;0.80;0.80;;;;;;;-12.89;77.84;99207.81;5105813;28;20081;-71
2024/01/16 02:30:43;;;;;;;0.85;0.85;;;;;;;-12.86;77.87;99223.84;5106080;28;20027;-71
2024/01/16 02:33:09;;;;;;;0.60;0.60;;;;;;;-12.88;77.82;99224.53;5106148;28;20024;-70
2024/01/16 02:35:34;;;;;;;0.60;0.60;;;;;;;-12.88;77.92;99222.91;5104656;28;20044;-70
2024/01/16 02:38:00;;;;;;;0.75;0.75;;;;;;;-12.88;77.81;99232.03;5105624;28;20039;-70
2024/01/16 02:40:26;;;;;;;0.75;0.75;;;;;;;-12.83;77.78;99253.19;5105946;28;20035;-71
2024/01/16 02:42:51;;;;;;;0.75;0.75;;;;;;;-12.86;77.85;99238.00;5105902;28;20024;-70
2024/01/16 02:45:17;;;;;;;0.70;0.70;;;;;;;-12.83;77.89;99243.19;5105850;28;20028;-70
2024/01/16 02:47:42;;;;;;;0.70;0.70;;;;;;;-12.80;77.66;99248.41;5105916;28;20028;-72
2024/01/16 02:50:09;;;;;;;0.60;0.60;;;;;;;-12.85;77.70;99244.72;5105802;28;20021;-71
2024/01/16 02:52:35;;;;;;;0.60;0.60;;;;;;;-12.88;77.54;99245.41;5104461;28;20031;-71
2024/01/16 02:55:00;;;;;;;0.63;0.63;;;;;;;-12.89;77.57;99241.13;5105799;28;20020;-71
2024/01/16 02:57:26;;;;;;;1.65;1.55;;;;;;;-12.88;77.71;99247.03;5105826;28;20020;-71
2024/01/16 02:59:51;;;;;;;0.95;0.95;;;;;;;-12.91;77.74;99241.81;5104321;28;20044;-71
2024/01/16 03:02:16;;;;;;;0.70;0.70;;;;;;;-12.90;77.69;99239.41;5105839;28;20349;-71
2024/01/16 03:04:42;;;;;;;0.70;0.70;;;;;;;-12.86;77.75;99248.00;5105695;28;20055;-71
2024/01/16 03:07:07;;;;;;;0.80;0.80;;;;;;;-12.79;77.68;99251.78;5104385;28;20027;-71
2024/01/16 03:09:33;;;;;;;0.70;0.70;;;;;;;-12.80;77.96;99253.41;5105797;28;20103;-71
2024/01/16 03:11:59;;;;;;;0.60;0.60;;;;;;;-12.79;77.92;99245.13;5105990;28;20026;-70
2024/01/16 03:14:24;;;;;;;0.70;0.70;;;;;;;-12.77;77.85;99257.72;5105659;28;20031;-70
2024/01/16 03:16:50;;;;;;;0.80;0.80;;;;;;;-12.76;77.90;99265.31;5105712;28;20024;-70
2024/01/16 03:19:15;;;;;;;0.70;0.70;;;;;;;-12.78;78.00;99254.38;5104429;28;20022;-70
2024/01/16 03:21:41;;;;;;;0.70;0.70;;;;;;;-12.76;77.87;99266.97;5105620;28;20020;-71
2024/01/16 03:24:07;;;;;;;0.80;0.80;;;;;;;-12.75;77.89;99268.69;5105666;28;20028;-71
2024/01/16 03:26:32;;;;;;;0.60;0.60;;;;;;;-12.77;77.75;99266.09;5105688;28;20034;-71
2024/01/16 03:28:58;;;;;;;0.70;0.70;;;;;;;-12.77;77.85;99272.72;5105567;28;20042;-70
2024/01/16 03:31:23;;;;;;;0.70;0.70;;;;;;;-12.82;77.48;99274.91;5105573;28;20391;-70
2024/01/16 03:33:49;;;;;;;0.68;0.68;;;;;;;-12.82;77.47;99274.91;5105559;28;20476;-70
2024/01/16 03:36:15;;;;;;;0.70;0.70;;;;;;;-12.91;77.42;99267.69;5105443;28;20020;-70
2024/01/16 03:38:42;;;;;;;0.70;0.70;;;;;;;-13.00;76.95;99262.06;5105380;28;20020;-70
2024/01/16 03:41:07;;;;;;;5.78;3.80;;;;;;;-13.04;76.97;99266.00;5104116;28;20030;-70
2024/01/16 03:43:36;;;;;;;0.60;0.60;;;;;;;-13.06;77.01;99272.50;5105420;28;20027;-70
2024/01/16 03:46:02;;;;;;;0.75;0.75;;;;;;;-13.14;77.13;99267.00;5105405;28;20024;-70
2024/01/16 03:48:27;;;;;;;0.60;0.60;;;;;;;-12.99;77.25;99277.19;5105436;28;20024;-70
2024/01/16 03:50:54;;;;;;;0.60;0.60;;;;;;;-12.94;77.29;99288.31;5109152;28;20470;-70
2024/01/16 03:53:20;;;;;;;0.70;0.70;;;;;;;-12.98;77.29;99273.91;5109066;28;20031;-70
2024/01/16 03:55:45;;;;;;;0.70;0.70;;;;;;;-12.89;77.25;99287.78;5108989;28;20016;-70
2024/01/16 03:58:10;;;;;;;0.80;0.80;;;;;;;-12.96;77.24;99269.88;5108951;28;20081;-71
2024/01/16 04:00:36;;;;;;;0.70;0.70;;;;;;;-12.93;77.04;99279.19;5108899;28;20020;-70
2024/01/16 04:03:02;;;;;;;0.70;0.70;;;;;;;-12.98;77.23;99263.91;5107562;28;20020;-71
2024/01/16 04:05:27;;;;;;;5.50;3.42;;;;;;;-13.05;77.52;99259.28;5108964;28;20078;-71
2024/01/16 04:07:52;;;;;;;0.63;0.63;;;;;;;-12.89;77.41;99282.78;5108763;28;20034;-70
2024/01/16 04:10:18;;;;;;;0.70;0.70;;;;;;;-12.84;77.70;99276.47;5108641;28;20024;-71
2024/01/16 04:12:43;;;;;;;0.73;0.73;;;;;;;-12.71;78.14;99274.00;5108769;28;20032;-70
2024/01/16 04:15:09;;;;;;;0.70;0.70;;;;;;;-12.52;78.79;99280.22;5108483;28;20020;-70
2024/01/16 04:17:34;;;;;;;1.65;1.55;;;;;;;-12.37;79.10;99267.84;5108617;28;20075;-71
2024/01/16 04:20:00;;;;;;;0.60;0.60;;;;;;;-12.13;79.17;99274.31;5108666;28;20069;-70
2024/01/16 04:22:25;;;;;;;0.68;0.68;;;;;;;-11.96;79.19;99275.34;5108525;28;20403;-71
2024/01/16 04:24:50;;;;;;;0.70;0.70;;;;;;;-11.82;79.56;99269.59;5107138;28;20062;-71
2024/01/16 04:27:16;;;;;;;0.80;0.80;;;;;;;-11.68;79.52;99276.22;5108315;28;20360;-71
2024/01/16 04:29:41;;;;;;;0.65;0.65;;;;;;;-11.62;79.77;99269.09;5108063;28;20040;-71
2024/01/16 04:32:07;;;;;;;0.70;0.70;;;;;;;-11.62;79.32;99269.09;5107269;28;20073;-71
2024/01/16 04:34:32;;;;;;;0.70;0.70;;;;;;;-11.58;78.59;99286.06;5108257;28;20084;-70
2024/01/16 04:36:57;;;;;;;0.60;0.60;;;;;;;-11.68;78.20;99284.63;5108323;28;20020;-71
2024/01/16 04:39:23;;;;;;;0.70;0.70;;;;;;;-11.76;77.97;99280.75;5108187;28;20494;-70
2024/01/16 04:41:49;;;;;;;0.70;0.70;;;;;;;-11.90;77.52;99284.91;5108136;28;20090;-70
2024/01/16 04:44:14;;;;;;;1.02;1.02;;;;;;;-11.97;77.20;99288.66;5107776;28;20094;-70
2024/01/16 04:46:40;;;;;;;0.70;0.70;;;;;;;-12.05;77.23;99289.78;5108241;28;20475;-70
2024/01/16 04:49:05;;;;;;;0.73;0.73;;;;;;;-12.12;76.93;99291.09;5106460;28;20092;-70
2024/01/16 04:51:30;;;;;;;0.70;0.70;;;;;;;-12.17;76.98;99293.28;5108047;28;20019;-70
2024/01/16 04:53:56;;;;;;;0.60;0.60;;;;;;;-12.25;77.16;99289.44;5107780;28;20027;-70
2024/01/16 04:56:21;;;;;;;0.70;0.70;;;;;;;-12.42;77.10;99290.81;5107756;28;20042;-71
2024/01/16 04:58:47;;;;;;;0.70;0.70;;;;;;;-12.48;77.11;99292.16;5106257;28;20044;-70
2024/01/16 05:01:13;;;;;;;0.70;0.70;;;;;;;-12.54;77.27;99294.28;5106053;28;20081;-70
2024/01/16 05:03:38;;;;;;;0.70;0.70;;;;;;;-12.61;77.32;99294.63;5107436;28;20024;-71
2024/01/16 05:06:04;;;;;;;0.60;0.60;;;;;;;-12.65;77.20;99298.53;5106356;28;20016;-71
2024/01/16 05:08:30;;;;;;;0.70;0.70;;;;;;;-12.72;76.81;99294.78;5106172;28;20040;-70
2024/01/16 05:10:56;;;;;;;0.80;0.80;;;;;;;-12.79;76.76;99289.28;5106244;28;20020;-71
2024/01/16 05:13:21;;;;;;;0.70;0.70;;;;;;;-12.88;76.79;99280.38;5106288;28;20030;-71
2024/01/16 05:15:47;;;;;;;0.60;0.60;;;;;;;-12.82;76.73;99297.41;5107215;28;20020;-70
2024/01/16 05:18:12;;;;;;;0.65;0.65;;;;;;;-12.86;76.92;99293.00;5107287;28;20492;-70
2024/01/16 05:20:38;;;;;;;0.77;0.77;;;;;;;-12.94;76.75;99295.81;5107269;28;20024;-70
2024/01/16 05:23:04;;;;;;;0.70;0.70;;;;;;;-12.92;77.06;99295.09;5107429;28;20039;-70
2024/01/16 05:25:29;;;;;;;0.70;0.70;;;;;;;-12.88;77.01;99297.00;5107547;28;20024;-70
2024/01/16 05:27:55;;;;;;;0.70;0.70;;;;;;;-13.12;76.94;99259.59;5107229;28;20104;-71
2024/01/16 05:30:21;;;;;;;0.63;0.63;;;;;;;-12.92;76.89;99290.09;5106848;28;20050;-71
2024/01/16 05:32:46;;;;;;;0.75;0.75;;;;;;;-12.91;77.13;99287.69;5107077;28;20047;-70
2024/01/16 05:35:11;;;;;;;0.70;0.70;;;;;;;-12.89;77.24;99282.78;5106860;28;20020;-71
2024/01/16 05:37:37;;;;;;;0.65;0.65;;;;;;;-12.89;76.95;99283.63;5106612;28;20020;-70
2024/01/16 05:40:03;;;;;;;0.90;0.90;;;;;;;-12.92;76.99;99277.59;5106938;28;20047;-70
2024/01/16 05:42:29;;;;;;;0.68;0.68;;;;;;;-12.97;76.70;99290.63;5106810;28;20024;-71
2024/01/16 05:44:54;;;;;;;0.63;0.63;;;;;;;-13.14;76.70;99282.00;5105359;28;20046;-71
2024/01/16 05:47:20;;;;;;;0.70;0.70;;;;;;;-13.17;76.65;99294.28;5106881;28;20480;-71
2024/01/16 05:49:45;;;;;;;0.70;0.70;;;;;;;-13.17;76.64;99304.25;5105296;28;20650;-71
2024/01/16 05:52:10;;;;;;;0.65;0.65;;;;;;;-13.20;76.86;99292.44;5106624;28;20035;-70
2024/01/16 05:54:36;;;;;;;0.70;0.70;;;;;;;-13.25;76.75;99301.25;5105256;28;20020;-71
2024/01/16 05:57:02;;;;;;;0.60;0.60;;;;;;;-13.27;76.72;99294.41;5106552;28;20123;-70
2024/01/16 05:59:28;;;;;;;0.70;0.70;;;;;;;-13.30;76.73;99299.22;5105033;28;20036;-70
2024/01/16 06:01:53;;;;;;;0.60;0.60;;;;;;;-13.37;76.83;99303.75;5106491;28;20079;-70
2024/01/16 06:04:19;;;;;;;0.70;0.70;;;;;;;-13.39;76.86;99306.91;5106383;28;20016;-70
2024/01/16 06:06:46;;;;;;;0.70;0.70;;;;;;;-13.38;77.21;99304.53;5106512;28;20024;-70
2024/01/16 06:09:13;;;;;;;0.60;0.60;;;;;;;-13.26;77.29;99307.00;5106434;28;20027;-71
2024/01/16 06:11:40;;;;;;;0.65;0.65;;;;;;;-13.16;77.78;99307.66;5105835;28;20020;-70
2024/01/16 06:14:06;;;;;;;0.70;0.70;;;;;;;-13.04;77.87;99300.97;5106418;28;20020;-70
2024/01/16 06:16:32;;;;;;;0.70;0.70;;;;;;;-12.82;78.38;99294.91;5104931;28;20031;-71
2024/01/16 06:19:00;;;;;;;0.70;0.70;;;;;;;-12.58;78.57;99292.31;5106334;28;20061;-71
2024/01/16 06:21:26;;;;;;;0.63;0.63;;;;;;;-12.38;78.91;99287.75;5106306;28;20028;-71
2024/01/16 06:23:51;;;;;;;0.70;0.70;;;;;;;-12.23;78.63;99297.88;5104925;28;20020;-71
2024/01/16 06:26:17;;;;;;;0.77;0.77;;;;;;;-12.09;79.23;99294.63;5106262;28;20054;-73
2024/01/16 06:28:42;;;;;;;0.60;0.60;;;;;;;-11.85;79.56;99301.94;5106120;28;20459;-71
2024/01/16 06:31:08;;;;;;;0.70;0.70;;;;;;;-11.66;79.77;99304.75;5105947;28;20024;-71
2024/01/16 06:33:34;;;;;;;0.70;0.70;;;;;;;-11.62;79.40;99310.03;5106239;28;20107;-71
2024/01/16 06:35:59;;;;;;;0.60;0.60;;;;;;;-11.60;79.72;99303.50;5104671;28;20058;-70
2024/01/16 06:38:25;;;;;;;0.70;0.70;;;;;;;-11.45;80.04;99301.06;5105912;28;20474;-71
2024/01/16 06:40:50;;;;;;;0.75;0.75;;;;;;;-11.30;80.09;99302.78;5106060;28;20028;-71
2024/01/16 06:43:16;;;;;;;0.70;0.70;;;;;;;-11.25;80.19;99286.41;5106090;28;20036;-72
2024/01/16 06:45:44;;;;;;;0.60;0.60;;;;;;;-11.02;80.11;99304.44;5104597;28;20086;-70
2024/01/16 06:48:10;;;;;;;0.63;0.63;;;;;;;-11.04;79.75;99297.63;5106063;28;20032;-72
2024/01/16 06:50:35;;;;;;;0.70;0.70;;;;;;;-11.15;79.51;99295.34;5105897;28;20490;-71
2024/01/16 06:53:04;;;;;;;0.70;0.70;;;;;;;-11.28;79.18;99302.88;5104753;28;20035;-72
2024/01/16 06:55:29;;;;;;;0.70;0.70;;;;;;;-11.48;79.00;99297.50;5105972;28;20124;-71
2024/01/16 06:57:55;;;;;;;0.90;0.90;;;;;;;-11.51;79.30;99302.31;5105805;28;20384;-72
2024/01/16 07:00:22;;;;;;;0.60;0.60;;;;;;;-11.44;79.48;99306.94;5105567;28;20196;-71
2024/01/16 07:02:48;;;;;;;0.65;0.65;;;;;;;-11.47;79.51;99292.59;5105814;28;20028;-71
2024/01/16 07:05:13;;;;;;;0.65;0.65;;;;;;;-11.44;79.19;99304.44;5105707;28;20526;-71
2024/01/16 07:07:39;;;;;;;0.70;0.70;;;;;;;-11.53;79.02;99309.75;5105690;28;20111;-71
2024/01/16 07:10:08;;;;;;;0.80;0.80;;;;;;;-11.61;78.90;99304.25;5105561;28;20032;-70
2024/01/16 07:12:33;;;;;;;0.70;0.70;;;;;;;-11.56;79.18;99309.56;5104150;28;20031;-71
2024/01/16 07:14:59;;;;;;;0.70;0.70;;;;;;;-11.49;78.89;99316.69;5105389;28;20054;-72
2024/01/16 07:17:24;;;;;;;0.75;0.75;;;;;;;-11.48;79.12;99323.44;5105636;28;20032;-72
2024/01/16 07:19:50;;;;;;;2.15;2.05;;;;;;;-11.54;78.99;99310.53;5105817;28;20062;-71
2024/01/16 07:22:15;;;;;;;0.60;0.60;;;;;;;-11.61;78.76;99310.94;5104352;28;20032;-71
2024/01/16 07:24:41;;;;;;;0.70;0.70;;;;;;;-11.74;78.81;99285.09;5107606;28;20035;-71
2024/01/16 07:27:06;;;;;;;0.80;0.80;;;;;;;-11.49;79.35;99306.66;5109597;28;20069;-71
2024/01/16 07:29:32;;;;;;;0.70;0.70;;;;;;;-11.34;79.77;99308.41;5109358;28;20489;-71
2024/01/16 07:31:57;;;;;;;0.70;0.70;;;;;;;-11.34;79.35;99300.88;5108204;28;20024;-71
2024/01/16 07:34:23;;;;;;;0.70;0.70;;;;;;;-11.33;79.15;99315.13;5109470;28;20026;-71
2024/01/16 07:36:48;;;;;;;0.60;0.60;;;;;;;-11.40;79.05;99308.00;5109473;28;20459;-72
2024/01/16 07:39:14;;;;;;;0.70;0.70;;;;;;;-11.36;79.03;99314.94;5108023;28;20041;-72
2024/01/16 07:41:40;;;;;;;0.70;0.70;;;;;;;-11.43;78.84;99305.28;5108046;28;20020;-72
2024/01/16 07:44:05;;;;;;;0.80;0.80;;;;;;;-11.33;79.20;99321.00;5109249;28;20043;-71
2024/01/16 07:46:31;;;;;;;0.50;0.50;;;;;;;-11.27;79.12;99312.13;5109072;28;20028;-71
2024/01/16 07:48:56;;;;;;;0.70;0.70;;;;;;;-11.29;78.63;99317.03;5109298;28;20059;-72
2024/01/16 07:51:21;;;;;;;0.60;0.60;;;;;;;-11.35;78.00;99314.16;5109077;28;20024;-72
2024/01/16 07:53:48;;;;;;;0.70;0.70;;;;;;;-11.66;77.86;99294.72;5109104;28;20024;-71
2024/01/16 07:56:14;;;;;;;0.60;0.60;;;;;;;-11.65;77.74;99319.88;5109191;28;20024;-72
2024/01/16 07:58:39;;;;;;;0.70;0.70;;;;;;;-11.80;78.31;99314.75;5108691;28;20150;-71
2024/01/16 08:01:05;;;;;;;0.70;0.70;;;;;;;-11.72;78.42;99320.25;5107548;28;20035;-72
2024/01/16 08:03:30;;;;;;;0.70;0.70;;;;;;;-11.70;78.85;99313.69;5108721;28;20099;-71
2024/01/16 08:05:56;;;;;;;0.70;0.70;;;;;;;-11.68;79.47;99317.19;5107516;28;20035;-71
2024/01/16 08:08:21;;;;;;;0.70;0.70;;;;;;;-11.57;79.86;99310.34;5107399;28;20123;-71
2024/01/16 08:10:47;;;;;;;0.70;0.70;;;;;;;-11.27;79.83;99324.66;5108800;28;20028;-71
2024/01/16 08:13:12;;;;;;;0.70;0.70;;;;;;;-11.18;79.76;99289.28;5107240;28;20020;-71
2024/01/16 08:15:38;;;;;;;0.70;0.70;;;;;;;-10.73;79.98;99307.84;5107357;28;20020;-71
2024/01/16 08:18:04;;;;;;;0.70;0.70;;;;;;;-10.41;77.95;99317.13;5108680;28;20127;-71
2024/01/16 08:20:29;;;;;;;0.70;0.70;;;;;;;-10.47;77.51;99325.19;5107220;28;20421;-71
2024/01/16 08:22:54;;;;;;;0.70;0.70;;;;;;;-10.70;75.92;99300.50;5107289;28;20020;-72
2024/01/16 08:25:20;;;;;;;0.70;0.70;;;;;;;-10.69;75.43;99323.94;5108399;28;20039;-71
2024/01/16 08:27:45;;;;;;;37.97;6.82;;;;;;;-10.73;75.47;99337.06;5108332;28;20024;-71
2024/01/16 08:30:12;;;;;;;0.73;0.73;;;;;;;-10.73;75.34;99335.44;5107995;28;20032;-72
2024/01/16 08:32:37;;;;;;;0.70;0.70;;;;;;;-10.79;75.73;99331.69;5107732;28;20032;-71
2024/01/16 08:35:05;;;;;;;1.17;1.17;;;;;;;-10.93;74.38;99321.69;5107399;28;20043;-72
2024/01/16 08:37:31;;;;;;;0.70;0.70;;;;;;;-11.11;74.80;99331.47;5108186;28;20026;-72
2024/01/16 08:39:57;;;;;;;0.70;0.70;;;;;;;-11.19;75.61;99328.50;5107966;28;20125;-72
2024/01/16 08:42:22;;;;;;;0.70;0.70;;;;;;;-11.12;76.01;99337.25;5108074;28;20171;-72
2024/01/16 08:44:47;;;;;;;0.70;0.70;;;;;;;-11.27;75.54;99323.03;5106359;28;20024;-71
2024/01/16 08:47:13;;;;;;;0.77;0.77;;;;;;;-11.31;75.77;99326.13;5106674;28;20032;-73
2024/01/16 08:49:39;;;;;;;2.75;2.65;;;;;;;-11.29;76.15;99313.69;5107805;28;20111;-72
2024/01/16 08:52:05;;;;;;;0.80;0.80;;;;;;;-11.05;75.93;99336.00;5106449;28;20036;-71
2024/01/16 08:54:30;;;;;;;0.65;0.65;;;;;;;-10.91;76.11;99320.16;5107775;28;20024;-71
2024/01/16 08:56:56;;;;;;;0.75;0.75;;;;;;;-10.81;76.16;99333.25;5107649;28;20468;-71
2024/01/16 08:59:21;;;;;;;0.80;0.80;;;;;;;-10.70;76.06;99327.19;5107476;28;20099;-72
2024/01/16 09:01:46;;;;;;;0.68;0.68;;;;;;;-10.52;76.19;99329.94;5107411;28;20035;-72
2024/01/16 09:04:12;;;;;;;0.70;0.70;;;;;;;-10.40;75.89;99328.91;5107363;28;20049;-71
2024/01/16 09:06:37;;;;;;;0.70;0.70;;;;;;;-10.30;75.97;99340.34;5107502;28;20082;-71
2024/01/16 09:09:04;;;;;;;0.70;0.70;;;;;;;-10.18;76.00;99343.56;5107328;28;20081;-71
2024/01/16 09:11:30;;;;;;;0.60;0.60;;;;;;;-9.89;75.75;99346.00;5105998;28;20035;-72
2024/01/16 09:13:55;;;;;;;0.70;0.70;;;;;;;-9.87;74.91;99336.91;5107334;28;20059;-72
2024/01/16 09:16:21;;;;;;;0.68;0.68;;;;;;;-9.85;74.20;99335.34;5107180;28;20039;-72
2024/01/16 09:18:46;;;;;;;0.70;0.70;;;;;;;-9.85;74.30;99335.34;5107184;28;20020;-72
2024/01/16 09:21:12;;;;;;;0.70;0.70;;;;;;;-9.71;74.04;99342.00;5107102;28;20024;-72
2024/01/16 09:23:38;;;;;;;0.65;0.65;;;;;;;-9.63;73.42;99339.06;5105929;28;20031;-72
2024/01/16 09:26:03;;;;;;;0.60;0.60;;;;;;;-9.67;74.43;99322.94;5105744;28;20043;-71
2024/01/16 09:28:28;;;;;;;0.70;0.70;;;;;;;-9.38;74.84;99331.22;5106998;28;20040;-71
2024/01/16 09:30:55;;;;;;;0.70;0.70;;;;;;;-9.15;73.78;99339.13;5106789;28;20048;-72
2024/01/16 09:33:22;;;;;;;0.60;0.60;;;;;;;-9.01;72.82;99327.28;5107013;28;20016;-72
2024/01/16 09:35:47;;;;;;;0.70;0.70;;;;;;;-8.93;72.45;99324.31;5105703;28;20023;-72
2024/01/16 09:38:13;;;;;;;0.70;0.70;;;;;;;-9.07;71.71;99321.06;5105574;28;20040;-72
2024/01/16 09:40:38;;;;;;;0.95;0.95;;;;;;;-9.13;71.94;99339.19;5106922;28;20083;-72
2024/01/16 09:43:08;;;;;;;0.70;0.70;;;;;;;-9.23;71.20;99336.19;5106978;28;20052;-72
2024/01/16 09:45:37;;;;;;;0.68;0.68;;;;;;;-9.38;71.58;99347.94;5106500;28;20035;-71
2024/01/16 09:48:04;;;;;;;0.70;0.70;;;;;;;-9.53;71.40;99341.28;5105909;28;20028;-73
2024/01/16 09:50:30;;;;;;;0.70;0.70;;;;;;;-9.52;71.73;99348.03;5106509;28;20024;-72
2024/01/16 09:52:55;;;;;;;0.70;0.70;;;;;;;-9.48;72.00;99344.94;5106341;28;20035;-72
2024/01/16 09:55:21;;;;;;;0.70;0.70;;;;;;;-9.48;71.71;99334.00;5106539;28;20028;-72
2024/01/16 09:57:51;;;;;;;0.70;0.70;;;;;;;-9.35;71.69;99340.56;5106487;28;20024;-72
2024/01/16 10:00:19;;;;;;;0.70;0.70;;;;;;;-9.10;71.78;99341.88;5104830;28;20479;-72
2024/01/16 10:02:44;;;;;;;0.50;0.50;;;;;;;-8.76;71.25;99333.59;5105056;28;20126;-73
2024/01/16 10:05:11;;;;;;;0.60;0.60;;;;;;;-8.47;71.34;99341.75;5106413;28;20095;-73
2024/01/16 10:07:45;;;;;;;0.60;0.60;;;;;;;-8.17;70.08;99335.66;5105064;28;20035;-73
2024/01/16 10:10:11;;;;;;;0.60;0.60;;;;;;;-7.98;68.99;99345.00;5106327;28;20104;-72
2024/01/16 10:12:39;;;;;;;0.70;0.70;;;;;;;-7.71;68.99;99337.03;5106375;28;20361;-72
2024/01/16 10:15:07;;;;;;;0.60;0.60;;;;;;;-7.55;68.50;99326.78;5106238;28;20103;-72
2024/01/16 10:17:40;;;;;;;0.70;0.70;;;;;;;-7.02;67.80;99335.13;5106438;28;20031;-72
2024/01/16 10:20:07;;;;;;;0.80;0.80;;;;;;;-6.82;67.05;99344.38;5106271;28;20020;-72
2024/01/16 10:22:33;;;;;;;0.68;0.68;;;;;;;-6.92;66.32;99335.53;5106361;28;20034;-72
2024/01/16 10:25:05;;;;;;;0.60;0.60;;;;;;;-6.95;65.64;99333.75;5106158;28;20060;-72
2024/01/16 10:27:31;;;;;;;0.70;0.70;;;;;;;-7.23;64.86;99317.34;5104790;28;20040;-73
2024/01/16 10:29:58;;;;;;;0.90;0.90;;;;;;;-7.56;65.13;99331.00;5106021;28;20107;-72
2024/01/16 10:32:34;;;;;;;0.65;0.65;;;;;;;-8.09;65.33;99319.28;5105981;28;20032;-72
2024/01/16 10:35:04;;;;;;;0.68;0.68;;;;;;;-8.44;66.05;99327.56;5105948;28;20024;-72
2024/01/16 10:37:30;;;;;;;0.60;0.60;;;;;;;-8.74;66.33;99313.56;5104635;28;20035;-73
2024/01/16 10:39:56;;;;;;;0.70;0.70;;;;;;;-8.98;67.20;99324.91;5088124;28;20024;-73
2024/01/16 10:42:21;;;;;;;0.70;0.70;;;;;;;-9.15;67.79;99338.28;5105909;28;20579;-73
2024/01/16 10:44:54;;;;;;;0.70;0.70;;;;;;;-9.02;68.57;99319.63;5105737;28;20031;-73
2024/01/16 10:47:21;;;;;;;0.70;0.70;;;;;;;-8.97;68.31;99326.66;5106043;28;20506;-74
2024/01/16 10:49:47;;;;;;;0.68;0.68;;;;;;;-9.15;67.69;99303.06;5105851;28;20050;-73
2024/01/16 10:52:12;;;;;;;0.80;0.80;;;;;;;-9.23;68.03;99326.13;5106044;28;20048;-73
2024/01/16 10:54:41;;;;;;;0.65;0.65;;;;;;;-9.31;68.83;99331.56;5105781;28;20024;-72
2024/01/16 10:57:07;;;;;;;0.70;0.70;;;;;;;-9.36;68.52;99329.63;5105827;28;20041;-73
2024/01/16 10:59:43;;;;;;;0.60;0.60;;;;;;;-9.56;68.69;99338.59;5109224;28;20045;-69
2024/01/16 11:02:11;;;;;;;0.70;0.70;;;;;;;-9.68;69.08;99340.44;5108823;28;20035;-73
2024/01/16 11:04:38;;;;;;;1.42;1.38;;;;;;;-9.75;69.27;99342.63;5109885;28;20081;-73
2024/01/16 11:07:04;;;;;;;0.80;0.80;;;;;;;-9.77;69.74;99348.31;5109760;28;20028;-72
2024/01/16 11:09:31;;;;;;;0.70;0.70;;;;;;;-9.96;69.79;99325.56;5109982;28;20024;-72
2024/01/16 11:11:57;;;;;;;8.65;6.28;;;;;;;-10.01;70.14;99329.44;5109885;28;20054;-72
2024/01/16 11:14:25;;;;;;;0.77;0.77;;;;;;;-9.93;70.09;99336.56;5109886;28;20031;-72
2024/01/16 11:16:51;;;;;;;0.85;0.85;;;;;;;-10.13;70.21;99312.06;5108289;28;20028;-73
2024/01/16 11:19:19;;;;;;;0.70;0.70;;;;;;;-10.16;70.58;99321.94;5108298;28;20395;-73
2024/01/16 11:21:45;;;;;;;0.65;0.65;;;;;;;-10.18;70.75;99312.56;5109730;28;20035;-72